KEKO/EKO METAR and TAF weather

Enter ICAO airport designator
Station Type Date Time Source
KEKO METAR 2022/07/03 13:56 UTC NOAA

KEKO 031356Z AUTO 00000KT 10SM CLR 17/M04 A2996 RMK AO2 SLP083 T01671044


Station Type Date Time Source
KEKO Decoded METAR 2022/07/03 13:56 UTC NOAA

ELKO REGIONAL AIRPORT, NV, United States (KEKO) 40-50N 115-47W 1547M
Jul 03, 2022 - 09:56 AM EDT / 2022.07.03 1356 UTC
Wind: Calm:0
Visibility: 10 mile(s):0
Sky conditions: clear
Temperature: 62.1 F (16.7 C)
Dew Point: 24.1 F (-4.4 C)
Relative Humidity: 23%
Pressure (altimeter): 29.96 in. Hg (1014 hPa)
ob: KEKO 031356Z AUTO 00000KT 10SM CLR 17/M04 A2996 RMK AO2 SLP083 T01671044
cycle: 14

Station Type Date Time Source
KEKO TAF 2022/07/03 12:22 UTC NOAA

TAF KEKO 031120Z 0312/0412 24008KT P6SM OVC120
FM031800 23015G25KT 6SM HZ SCT120
FM040400 VRB06KT P6SM BKN120

Example: see airport list